Airfield :
LOGIN :

Register | Disclaimer

   EN    FR    IT 

 










Legend :    VFR   Marginal VFR   IFR   Intensive IFR   Very Intensive IFR
Visi :
Ceiling :
>= 8 km
>= 3000ft
5 to 8 km
1000 to 3000 ft
1500m to 5 km
500 to 1000 ft
800 to 1500m
200 to 500 ft
< 800m
< 200 ft
Symbols :   Thunderstorms  Fog  Heavy snow  Heavy precipitations  Wind > 20 kt
SIGMETs :     Misc.  Thunderstorms  Icing  Turbulence  Mountain Waves  Volcanic Ashes







- Airport Elevation : 295 ft
- IATA code : BWE


EDVE - Braunschweig

CURRENT METAR :
  • 231450Z 21007KT 180V240 3200 -DZ BKN007 OVC015 10/10 Q1016

EXPIRED METARs :
  • 231420Z 21007KT 180V240 4500 -DZ SCT007 BKN018 OVC021 10/10 Q1016
  • 231350Z 24012KT 9999 -DZ BKN015 BKN038 OVC045 11/11 Q1016
  • 231320Z 24011KT 9999 BKN018 OVC072 12/12 Q1015
  • 231250Z 24014KT 9999 OVC019 12/11 Q1015
  • 231220Z 25012KT 9999 BKN019 BKN055 12/11 Q1015

TAF TAF EDVE
Valid from the 23 at 15:00 until the 23 at 21:00 UTC


231400Z 2315/2321 24011KT 9999 BKN020
TEMPO 2315/2319 4000 -RADZ BKN012
BECMG 2316/2319 29006KT
TEMPO 2319/2321 4000 BR BKN012
No reported NOTAMs for that airfield.



MET'MAP, your aeronautical weather chart ! - Copyright ORBIFLY December 2007 - Disclaimer

ORBIFLY MET'MAP TEAM :

Programming & Development : Alexandra Zaïnal
Concept & Development : Baudouin d'Aumeries
Co-Development & Prog : Marc-Olivier Méhu
Technical & hardware support : Manuel Goepfert

Contact : metmap@orbifly.com




SOURCES & CREDITS :

   NOAA